Time;durP1;ratioP1;P1;durP2;ratioP2;P2;SDS_P1;SDS_P2;PMS_P1;PMS_P2;Temp;Humidity;BMP_temperature;BMP_pressure;BME280_temperature;BME280_humidity;BME280_pressure;Samples;Min_cycle;Max_cycle;Signal;HPM_P1;HPM_P2
2022/08/31 00:05:31;;;;;;;7.45;4.72;;;;;;;23.44;51.86;101608.59;2340310;75;22267;-73
2022/08/31 00:08:33;;;;;;;6.15;4.42;;;;;;;23.43;51.85;101605.05;2308699;75;50597;-73
2022/08/31 00:11:36;;;;;;;5.92;4.55;;;;;;;23.44;51.84;101603.19;2309441;75;51011;-73
2022/08/31 00:14:38;;;;;;;6.37;4.00;;;;;;;23.44;51.82;101604.53;2295159;76;51507;-73
2022/08/31 00:17:40;;;;;;;6.72;3.90;;;;;;;23.42;51.85;101605.23;2294594;76;51031;-73
2022/08/31 00:20:43;;;;;;;6.60;4.40;;;;;;;23.43;51.81;101604.22;2296142;76;49512;-73
2022/08/31 00:23:46;;;;;;;5.97;3.67;;;;;;;23.41;51.84;101603.05;2330315;76;50728;-73
2022/08/31 00:26:48;;;;;;;6.72;3.83;;;;;;;23.41;51.84;101604.41;2307549;76;50193;-73
2022/08/31 00:29:50;;;;;;;6.03;3.92;;;;;;;23.41;51.78;101600.88;2325631;75;50724;-73
2022/08/31 00:32:52;;;;;;;5.37;3.60;;;;;;;23.42;51.79;101594.43;2335468;75;50647;-73
2022/08/31 00:35:55;;;;;;;4.92;3.80;;;;;;;23.42;51.82;101598.48;2334997;75;51715;-73
2022/08/31 00:38:57;;;;;;;6.87;3.80;;;;;;;23.42;51.76;101602.53;2335184;75;51490;-73
2022/08/31 00:41:59;;;;;;;5.58;3.70;;;;;;;23.42;51.74;101599.83;2370660;75;50564;-73
2022/08/31 00:45:01;;;;;;;4.90;3.67;;;;;;;23.41;51.77;101592.77;2302913;75;52777;-73
2022/08/31 00:48:03;;;;;;;5.25;3.58;;;;;;;23.42;51.72;101586.33;2334955;75;50726;-73
2022/08/31 00:51:06;;;;;;;4.45;3.37;;;;;;;23.42;51.75;101586.33;2334675;75;51483;-73
2022/08/31 00:54:09;;;;;;;5.08;3.60;;;;;;;23.41;51.71;101583.31;2364080;75;50641;-73
2022/08/31 00:57:11;;;;;;;6.47;3.80;;;;;;;23.41;51.67;101590.90;2347723;75;51226;-73
2022/08/31 01:00:16;;;;;;;5.67;3.60;;;;;;;23.41;51.67;101599.52;2301510;76;51009;-73
2022/08/31 01:03:18;;;;;;;5.30;3.47;;;;;;;23.41;51.67;101600.88;2300041;76;50386;-73
2022/08/31 01:06:20;;;;;;;5.42;3.65;;;;;;;23.40;51.68;101602.74;2330667;76;50240;-73
2022/08/31 01:09:22;;;;;;;4.60;3.45;;;;;;;23.41;51.64;101609.80;2299013;76;49592;-72
2022/08/31 01:12:26;;;;;;;5.08;3.50;;;;;;;23.40;51.67;101606.80;2331232;75;50319;-73
2022/08/31 01:15:29;;;;;;;5.67;3.80;;;;;;;23.40;51.65;101607.28;2333546;76;50685;-73
2022/08/31 01:18:31;;;;;;;5.33;3.40;;;;;;;23.39;51.66;101611.03;2330934;75;51525;-73
2022/08/31 01:21:42;;;;;;;4.03;3.30;;;;;;;23.39;51.67;101608.33;2331294;76;51537;-73
2022/08/31 01:24:46;;;;;;;5.25;3.20;;;;;;;23.39;51.66;101608.33;2292997;76;51195;-73
2022/08/31 01:27:48;;;;;;;4.55;2.95;;;;;;;23.39;51.65;101611.03;2335936;74;51440;-73
2022/08/31 01:31:07;;;;;;;5.37;3.30;;;;;;;23.38;51.68;101620.17;2299746;77;51571;-73
2022/08/31 01:34:09;;;;;;;5.05;3.35;;;;;;;23.37;51.66;101618.48;2267278;77;51977;-73
2022/08/31 01:37:12;;;;;;;4.80;3.27;;;;;;;23.38;51.64;101620.17;2332504;75;50145;-73
2022/08/31 01:40:14;;;;;;;4.37;3.27;;;;;;;23.38;51.66;101617.47;2363953;75;50322;-73
2022/08/31 01:43:16;;;;;;;3.95;2.77;;;;;;;23.37;51.70;101621.17;2331595;75;50119;-73
2022/08/31 01:46:19;;;;;;;5.20;3.12;;;;;;;23.37;51.66;101614.42;2331248;75;50153;-73
2022/08/31 01:49:21;;;;;;;5.53;3.50;;;;;;;23.37;51.66;101622.01;2331253;75;49731;-73
2022/08/31 01:52:24;;;;;;;5.83;3.15;;;;;;;23.35;51.69;101615.12;2345949;74;50349;-72
2022/08/31 01:55:26;;;;;;;4.42;3.37;;;;;;;23.36;51.69;101615.47;2327193;75;50338;-73
2022/08/31 01:58:28;;;;;;;3.95;3.00;;;;;;;23.34;51.67;101616.99;2269870;76;51173;-73
2022/08/31 02:01:33;;;;;;;4.80;3.65;;;;;;;23.36;51.66;101616.81;2269047;76;50613;-72
2022/08/31 02:04:35;;;;;;;3.47;2.90;;;;;;;23.35;51.67;101617.83;2327090;75;51610;-72
2022/08/31 02:07:37;;;;;;;6.40;3.15;;;;;;;23.35;51.65;101620.03;2300174;75;51469;-72
2022/08/31 02:10:39;;;;;;;5.00;3.10;;;;;;;23.34;51.64;101617.52;2353941;75;51538;-73
2022/08/31 02:13:42;;;;;;;4.25;3.10;;;;;;;23.34;51.62;101617.52;2291257;75;52404;-72
2022/08/31 02:16:44;;;;;;;3.47;3.08;;;;;;;23.35;51.61;101609.72;2331464;75;51586;-72
2022/08/31 02:19:46;;;;;;;3.92;3.10;;;;;;;23.35;51.59;101608.38;2363973;75;51534;-73
2022/08/31 02:22:49;;;;;;;4.03;2.95;;;;;;;23.35;51.61;101611.08;2323962;75;51445;-72
2022/08/31 02:25:51;;;;;;;4.25;3.02;;;;;;;23.34;51.60;101596.73;2272081;77;50295;-73
2022/08/31 02:28:53;;;;;;;3.58;3.20;;;;;;;23.34;51.60;101603.49;2305118;77;50263;-72
2022/08/31 02:31:57;;;;;;;3.65;3.15;;;;;;;23.35;51.60;101608.38;2271656;77;50306;-72
2022/08/31 02:34:59;;;;;;;3.67;3.00;;;;;;;23.35;51.56;101602.48;2272089;77;51541;-72
2022/08/31 02:38:01;;;;;;;4.80;2.95;;;;;;;23.35;51.55;101598.92;2317038;75;51393;-72
2022/08/31 02:41:04;;;;;;;3.70;3.08;;;;;;;23.34;51.56;101599.44;2296389;76;52329;-72
2022/08/31 02:44:06;;;;;;;3.10;2.65;;;;;;;23.35;51.53;101601.62;2343130;75;50341;-72
2022/08/31 02:47:08;;;;;;;4.00;3.00;;;;;;;23.34;51.51;101600.79;2301920;76;50607;-72
2022/08/31 02:50:10;;;;;;;3.40;2.60;;;;;;;23.34;51.53;101598.09;2342897;76;51623;-72
2022/08/31 02:53:14;;;;;;;4.12;2.85;;;;;;;23.33;51.54;101596.43;2334085;76;50751;-72
2022/08/31 02:56:16;;;;;;;3.67;2.60;;;;;;;23.32;51.58;101595.26;2296443;76;50991;-72
2022/08/31 02:59:19;;;;;;;2.85;2.50;;;;;;;23.32;51.54;101596.61;2296625;76;52061;-72
2022/08/31 03:02:23;;;;;;;4.50;3.22;;;;;;;23.33;51.51;101598.30;2296976;76;51490;-72
2022/08/31 03:05:25;;;;;;;3.67;2.90;;;;;;;23.32;51.49;101600.14;2271230;76;49571;-72
2022/08/31 03:08:27;;;;;;;3.75;2.75;;;;;;;23.32;51.51;101596.09;2324150;75;50671;-72
2022/08/31 03:11:29;;;;;;;3.33;2.70;;;;;;;23.32;51.50;101602.01;2327762;75;51378;-72
2022/08/31 03:14:32;;;;;;;3.87;2.92;;;;;;;23.32;51.49;101597.96;2366929;74;50225;-73
2022/08/31 03:17:34;;;;;;;3.75;2.62;;;;;;;23.31;51.54;101604.40;2331680;75;50254;-72
2022/08/31 03:20:36;;;;;;;2.60;2.40;;;;;;;23.31;51.54;101597.13;2331549;75;51703;-73
2022/08/31 03:23:38;;;;;;;3.50;2.65;;;;;;;23.30;51.53;101598.17;2284101;77;51377;-72
2022/08/31 03:26:41;;;;;;;3.17;2.52;;;;;;;23.31;51.52;101594.43;2287493;75;51462;-72
2022/08/31 03:29:43;;;;;;;3.35;2.30;;;;;;;23.30;51.52;101589.20;2268525;77;52664;-72
2022/08/31 03:32:47;;;;;;;4.03;2.55;;;;;;;23.30;51.51;101590.55;2282641;77;51449;-72
2022/08/31 03:35:49;;;;;;;3.27;2.50;;;;;;;23.29;51.52;101589.73;2306777;77;51489;-73
2022/08/31 03:38:52;;;;;;;3.45;2.35;;;;;;;23.31;51.49;101590.89;2282649;76;51519;-72
2022/08/31 03:41:54;;;;;;;3.33;2.72;;;;;;;23.30;51.49;101590.06;2257959;77;51525;-72
2022/08/31 03:44:56;;;;;;;3.10;2.50;;;;;;;23.30;51.49;101597.30;2282408;76;52638;-73
2022/08/31 03:47:59;;;;;;;3.33;2.58;;;;;;;23.30;51.48;101600.88;2306829;77;51559;-72
2022/08/31 03:51:01;;;;;;;3.75;2.45;;;;;;;23.29;51.48;101599.70;2282658;76;51471;-72
2022/08/31 03:54:03;;;;;;;3.02;2.47;;;;;;;23.29;51.46;101613.20;2286304;77;51483;-72
2022/08/31 03:57:06;;;;;;;3.02;2.37;;;;;;;23.29;51.42;101612.68;2273357;75;50623;-72
2022/08/31 04:00:09;;;;;;;3.60;2.45;;;;;;;23.29;51.40;101611.84;2316400;75;50393;-72
2022/08/31 04:03:12;;;;;;;3.62;2.50;;;;;;;23.29;51.43;101615.90;2315766;75;51484;-72
2022/08/31 04:06:14;;;;;;;3.35;2.60;;;;;;;23.29;51.40;101617.25;2311196;75;50736;-72
2022/08/31 04:09:17;;;;;;;4.72;2.80;;;;;;;23.30;51.39;101621.13;2297202;75;51003;-72
2022/08/31 04:12:19;;;;;;;2.95;2.35;;;;;;;23.29;51.40;101624.83;2315536;75;50680;-72
2022/08/31 04:15:21;;;;;;;2.90;2.60;;;;;;;23.28;51.41;101620.99;2315525;75;51394;-73
2022/08/31 04:18:23;;;;;;;2.40;2.20;;;;;;;23.27;51.43;101621.48;2285441;75;49545;-72
2022/08/31 04:21:29;;;;;;;2.20;2.00;;;;;;;23.29;51.41;101625.35;2315649;75;50425;-72
2022/08/31 04:24:31;;;;;;;3.20;2.47;;;;;;;23.28;51.39;101629.92;2352376;75;51517;-72
2022/08/31 04:27:33;;;;;;;2.70;2.05;;;;;;;23.28;51.37;101637.20;2301508;75;51557;-73
2022/08/31 04:30:38;;;;;;;2.52;2.17;;;;;;;23.26;51.42;101627.40;2323087;75;53757;-72
2022/08/31 04:33:40;;;;;;;3.60;2.20;;;;;;;23.28;51.37;101631.80;2314962;75;50097;-72
2022/08/31 04:36:47;;;;;;;2.50;2.08;;;;;;;23.28;51.36;101642.08;2315228;75;50079;-72
2022/08/31 04:39:46;;;;;;;4.35;2.05;;;;;;;23.24;51.74;101644.30;2348798;75;22340;-74
2022/08/31 04:42:48;;;;;;;3.10;2.40;;;;;;;23.24;51.76;101647.00;2289650;75;52438;-73
2022/08/31 04:45:51;;;;;;;10.60;2.83;;;;;;;23.23;52.26;101645.34;2350098;75;50678;-73
2022/08/31 04:48:53;;;;;;;4.17;2.20;;;;;;;23.20;52.41;101644.38;2315483;75;51467;-73
2022/08/31 04:51:55;;;;;;;4.80;2.15;;;;;;;23.21;52.43;101644.69;2285322;75;50897;-73
2022/08/31 04:54:57;;;;;;;2.83;2.02;;;;;;;23.21;52.74;101646.03;2305971;76;51436;-74
2022/08/31 04:57:59;;;;;;;12.07;3.45;;;;;;;23.24;52.12;101640.77;2302712;75;49592;-73
2022/08/31 05:01:02;;;;;;;11.20;2.87;;;;;;;23.23;52.55;101651.26;2336243;75;52227;-74
2022/08/31 05:04:04;;;;;;;10.58;2.83;;;;;;;23.24;53.48;101640.77;2327148;75;50779;-72
2022/08/31 05:07:06;;;;;;;11.20;2.87;;;;;;;23.27;53.23;101647.13;2299993;76;52198;-73
2022/08/31 05:10:09;;;;;;;11.60;3.15;;;;;;;23.26;53.61;101646.30;2295206;75;50669;-73
2022/08/31 05:13:12;;;;;;;7.92;2.70;;;;;;;23.26;53.32;101642.25;2333070;75;51471;-73
2022/08/31 05:16:15;;;;;;;9.83;3.02;;;;;;;23.27;53.50;101641.73;2311141;75;51550;-73
2022/08/31 05:19:18;;;;;;;10.50;3.02;;;;;;;23.28;53.63;101648.00;2284509;76;50239;-73
2022/08/31 05:22:20;;;;;;;6.58;2.45;;;;;;;23.26;53.59;101647.66;2307115;76;51060;-73
2022/08/31 05:25:22;;;;;;;10.38;2.92;;;;;;;23.26;53.49;101654.41;2322619;75;51546;-73
2022/08/31 05:28:24;;;;;;;8.83;2.50;;;;;;;23.28;53.32;101657.45;2340863;75;50394;-73
2022/08/31 05:31:27;;;;;;;18.87;3.70;;;;;;;23.27;53.20;101655.23;2264778;76;49417;-74
2022/08/31 05:34:30;;;;;;;11.15;3.08;;;;;;;23.30;53.53;101649.97;2263539;76;51494;-73
2022/08/31 05:37:32;;;;;;;9.55;2.98;;;;;;;23.36;53.22;101653.28;2293749;76;52282;-74
2022/08/31 05:40:34;;;;;;;10.60;3.08;;;;;;;23.47;53.45;101647.36;2262777;76;50271;-74
2022/08/31 05:43:37;;;;;;;16.20;2.85;;;;;;;23.46;53.77;101652.45;2287658;76;50308;-74
2022/08/31 05:46:39;;;;;;;12.58;3.05;;;;;;;23.51;53.75;101658.13;2264866;76;52659;-74
2022/08/31 05:49:42;;;;;;;8.83;2.87;;;;;;;23.55;53.54;101653.98;2263282;76;51414;-73
2022/08/31 05:52:44;;;;;;;12.15;3.00;;;;;;;23.60;53.40;101662.88;2294227;76;50657;-73
2022/08/31 05:55:47;;;;;;;6.53;2.80;;;;;;;23.64;53.26;101662.83;2269118;76;51294;-73
2022/08/31 05:58:49;;;;;;;12.90;2.70;;;;;;;23.68;53.05;101667.63;2270382;75;50249;-73
2022/08/31 06:01:51;;;;;;;12.40;2.65;;;;;;;23.73;52.89;101668.44;2311605;76;50256;-73
2022/08/31 06:04:56;;;;;;;13.00;2.98;;;;;;;23.81;52.67;101674.23;2286196;76;50361;-73
2022/08/31 06:07:58;;;;;;;17.85;3.05;;;;;;;23.84;52.53;101669.30;2333472;76;51531;-73
2022/08/31 06:11:00;;;;;;;20.60;3.80;;;;;;;23.88;52.35;101675.97;2244716;75;51149;-73
2022/08/31 06:14:04;;;;;;;23.62;3.87;;;;;;;23.91;52.07;101666.64;2311300;76;51497;-73
2022/08/31 06:17:06;;;;;;;19.35;3.90;;;;;;;23.96;51.87;101670.95;2347747;74;51516;-73
2022/08/31 06:20:09;;;;;;;17.40;3.12;;;;;;;24.05;51.61;101675.20;2327900;74;49582;-73
2022/08/31 06:23:12;;;;;;;19.55;3.22;;;;;;;24.05;51.55;101673.85;2324877;74;51498;-73
2022/08/31 06:26:15;;;;;;;15.15;3.10;;;;;;;24.07;51.44;101674.50;2335150;75;50312;-75
2022/08/31 06:29:17;;;;;;;13.60;3.22;;;;;;;24.10;51.22;101677.33;2291122;75;51583;-73
2022/08/31 06:32:20;;;;;;;19.65;3.40;;;;;;;24.12;51.11;101684.22;2323667;75;51467;-73
2022/08/31 06:35:22;;;;;;;14.93;3.60;;;;;;;24.15;51.01;101682.98;2245530;76;50093;-73
2022/08/31 06:38:24;;;;;;;21.35;3.42;;;;;;;24.18;51.01;101677.70;2295274;76;51573;-73
2022/08/31 06:41:29;;;;;;;15.90;2.98;;;;;;;24.20;50.76;101683.73;2321583;76;51457;-73
2022/08/31 06:44:32;;;;;;;14.68;2.98;;;;;;;24.21;50.62;101683.55;2295181;76;49602;-74
2022/08/31 06:47:34;;;;;;;16.42;3.15;;;;;;;24.25;50.57;101678.58;2270142;76;50269;-73
2022/08/31 06:50:39;;;;;;;15.98;3.30;;;;;;;24.25;50.54;101678.58;2295612;76;50720;-73
2022/08/31 06:53:41;;;;;;;12.88;3.22;;;;;;;24.25;50.47;101679.44;2271508;76;22340;-73
2022/08/31 06:56:43;;;;;;;14.78;2.87;;;;;;;24.28;50.41;101672.80;2317945;75;50263;-73
2022/08/31 06:59:45;;;;;;;13.53;2.75;;;;;;;24.30;50.39;101684.23;2302858;75;49520;-73
2022/08/31 07:02:48;;;;;;;15.18;2.77;;;;;;;24.33;50.32;101680.64;2307164;75;50324;-72
2022/08/31 07:05:51;;;;;;;8.05;2.50;;;;;;;24.35;50.24;101687.19;2355788;75;50655;-73
2022/08/31 07:08:56;;;;;;;10.75;2.77;;;;;;;24.37;50.17;101675.66;2298495;76;50105;-73
2022/08/31 07:11:58;;;;;;;11.83;2.63;;;;;;;24.38;50.11;101689.52;2316246;74;51493;-74
2022/08/31 07:15:00;;;;;;;12.30;2.83;;;;;;;24.40;50.10;101694.72;2315420;76;50728;-74
2022/08/31 07:18:03;;;;;;;11.05;2.52;;;;;;;24.40;50.05;101688.78;2284170;76;50357;-74
2022/08/31 07:21:19;;;;;;;10.10;2.77;;;;;;;24.42;50.00;101688.08;2286081;76;50423;-74
2022/08/31 07:24:27;;;;;;;10.63;2.50;;;;;;;24.45;49.97;101689.06;2286059;76;51001;-73
2022/08/31 07:27:29;;;;;;;9.70;2.60;;;;;;;24.46;49.93;101693.98;2327387;75;22282;-75
2022/08/31 07:30:41;;;;;;;16.85;2.98;;;;;;;24.48;49.88;101700.00;2281769;75;51484;-73
2022/08/31 07:33:38;;;;;;;14.28;2.77;;;;;;;24.48;49.88;101698.66;2315973;75;22416;-73
2022/08/31 07:43:21;;;;;;;12.73;2.95;;;;;;;24.48;49.86;101705.41;2272002;77;22454;-73
2022/08/31 07:46:28;;;;;;;10.60;2.52;;;;;;;24.47;49.85;101716.77;2310781;74;51440;-74
2022/08/31 07:49:27;;;;;;;7.12;2.00;;;;;;;24.47;49.84;101715.94;2300070;75;22417;-74
2022/08/31 07:52:31;;;;;;;12.43;2.45;;;;;;;24.47;49.84;101719.98;2330128;75;51541;-74
2022/08/31 07:55:34;;;;;;;8.20;2.50;;;;;;;24.45;49.81;101726.94;2343086;75;51542;-74
2022/08/31 07:58:38;;;;;;;9.63;2.42;;;;;;;24.46;49.77;101729.98;2281463;75;49516;-74
2022/08/31 08:01:42;;;;;;;10.13;2.37;;;;;;;24.46;49.79;101729.16;2323758;76;51635;-74
2022/08/31 08:04:45;;;;;;;14.25;2.45;;;;;;;24.45;49.78;101726.11;2334012;76;50275;-74
2022/08/31 08:07:49;;;;;;;9.90;2.10;;;;;;;24.44;49.77;101721.19;2333543;76;52418;-74
2022/08/31 08:10:51;;;;;;;8.53;2.30;;;;;;;24.46;49.71;101722.39;2333761;76;51515;-74
2022/08/31 08:13:54;;;;;;;8.38;2.35;;;;;;;24.45;49.75;101718.82;2305260;76;51106;-74
2022/08/31 08:16:56;;;;;;;5.60;2.12;;;;;;;24.44;49.72;101721.71;2295477;76;52173;-74
2022/08/31 08:19:58;;;;;;;8.08;2.27;;;;;;;24.43;49.74;101721.37;2310364;76;51491;-75
2022/08/31 08:23:00;;;;;;;5.90;2.10;;;;;;;24.44;49.66;101719.00;2261287;75;51016;-74
2022/08/31 08:26:06;;;;;;;5.12;1.77;;;;;;;24.44;49.62;101721.71;2379189;74;51486;-74
2022/08/31 08:29:08;;;;;;;8.35;2.00;;;;;;;24.43;49.67;101715.47;2358609;74;50313;-74
2022/08/31 08:32:10;;;;;;;6.25;1.72;;;;;;;24.45;49.57;101720.70;2338920;74;50290;-75
2022/08/31 08:35:12;;;;;;;6.53;1.92;;;;;;;24.44;49.61;101720.36;2338866;74;50738;-74
2022/08/31 08:38:15;;;;;;;5.33;1.82;;;;;;;24.44;49.58;101715.78;2320563;76;49539;-74
2022/08/31 08:41:20;;;;;;;5.15;1.77;;;;;;;24.41;49.55;101720.23;2282263;74;51452;-74
2022/08/31 08:44:22;;;;;;;6.10;2.00;;;;;;;24.41;49.53;101727.00;2339912;75;50169;-74
2022/08/31 08:47:27;;;;;;;7.78;1.80;;;;;;;24.39;49.55;101722.81;2301661;76;49528;-75
2022/08/31 08:50:29;;;;;;;4.90;1.80;;;;;;;24.40;49.57;101729.88;2334150;76;51590;-74
2022/08/31 08:53:32;;;;;;;6.83;1.57;;;;;;;24.40;49.53;101724.47;2312141;74;50706;-74
2022/08/31 08:56:45;;;;;;;7.08;1.90;;;;;;;24.38;49.55;101732.80;2318652;76;51491;-74
2022/08/31 08:59:38;;;;;;;8.13;1.90;;;;;;;24.36;49.58;101725.39;2288153;76;22384;-74
2022/08/31 09:02:57;;;;;;;4.17;1.45;;;;;;;24.35;49.52;101727.76;2305345;75;49432;-75
2022/08/31 09:06:08;;;;;;;;;;;;;;;24.33;49.44;101724.44;2321721;75;22342;-74
2022/08/31 09:09:31;;;;;;;8.00;1.80;;;;;;;24.33;49.46;101725.79;2329422;76;50229;-75
2022/08/31 09:13:07;;;;;;;7.60;1.75;;;;;;;24.29;49.54;101721.27;2261214;75;50059;-74
2022/08/31 09:16:21;;;;;;;5.33;1.85;;;;;;;24.27;49.57;101721.97;2330922;76;22735;-74
2022/08/31 09:19:23;;;;;;;4.20;1.65;;;;;;;24.26;49.61;101723.53;2301337;75;50258;-74
2022/08/31 09:22:31;;;;;;;5.03;1.67;;;;;;;24.24;49.60;101717.48;2307987;76;50044;-74
2022/08/31 09:25:50;;;;;;;6.42;1.82;;;;;;;24.24;49.61;101718.31;2334264;76;50234;-74
2022/08/31 09:28:52;;;;;;;5.78;1.50;;;;;;;24.23;49.62;101718.53;2316694;75;22303;-73
2022/08/31 09:32:06;;;;;;;2.90;1.45;;;;;;;24.19;49.69;101716.70;2303615;75;50677;-74
2022/08/31 09:35:13;;;;;;;3.50;1.60;;;;;;;24.20;49.62;101729.70;2283446;76;51580;-74
2022/08/31 09:38:28;;;;;;;3.67;1.52;;;;;;;24.19;49.53;101714.52;2328042;75;22516;-74
2022/08/31 09:41:35;;;;;;;4.37;1.80;;;;;;;24.20;49.55;101716.19;2316819;75;50717;-74
2022/08/31 09:44:36;;;;;;;5.67;1.50;;;;;;;24.17;49.58;101726.88;2314328;73;23508;-74
2022/08/31 09:47:51;;;;;;;4.47;1.77;;;;;;;24.18;49.58;101723.68;2268204;76;51240;-76
2022/08/31 09:50:56;;;;;;;3.00;1.42;;;;;;;24.14;49.62;101719.16;2290830;76;50183;-73
2022/08/31 09:57:44;;;;;;;2.87;1.52;;;;;;;24.12;49.61;101723.42;2348313;75;23138;-72
2022/08/31 10:00:50;;;;;;;5.62;1.65;;;;;;;24.10;49.70;101714.66;2345218;74;50351;-73
2022/08/31 10:03:50;;;;;;;3.17;1.57;;;;;;;24.09;49.72;101715.67;2356469;73;22357;-72
2022/08/31 10:07:08;;;;;;;4.45;1.32;;;;;;;24.09;49.70;101707.56;2355273;75;50574;-72
2022/08/31 10:10:16;;;;;;;5.83;1.52;;;;;;;24.08;49.69;101708.61;2354452;74;50086;-72
2022/08/31 10:13:22;;;;;;;4.87;1.65;;;;;;;24.07;49.65;101708.79;2330254;75;50011;-73
2022/08/31 10:16:41;;;;;;;;;;;;;;;24.06;49.42;101710.66;2361053;74;51602;-73
2022/08/31 10:20:14;;;;;;;3.65;1.50;;;;;;;24.07;49.17;101712.35;2363271;74;50742;-73
2022/08/31 10:23:17;;;;;;;4.87;1.65;;;;;;;24.04;49.22;101707.83;2351006;75;21862;-74
2022/08/31 10:26:32;;;;;;;4.85;1.00;;;;;;;24.04;49.00;101705.95;2331709;75;51549;-73
2022/08/31 10:29:55;;;;;;;2.50;1.50;;;;;;;24.03;48.94;101711.05;2318326;76;22555;-74
2022/08/31 10:33:03;;;;;;;5.17;1.22;;;;;;;24.01;48.85;101712.28;2323624;75;50457;-75
2022/08/31 10:36:06;;;;;;;3.25;1.22;;;;;;;23.96;48.74;101712.02;2309444;77;51489;-75
2022/08/31 10:39:20;;;;;;;5.42;1.50;;;;;;;23.96;48.65;101702.03;2353547;75;50302;-75
2022/08/31 10:42:36;;;;;;;3.62;1.50;;;;;;;23.96;48.65;101709.31;2351388;75;50349;-74
2022/08/31 10:45:41;;;;;;;5.58;1.60;;;;;;;23.85;48.54;101676.89;2355132;75;51651;-75
2022/08/31 10:48:53;;;;;;;4.00;1.35;;;;;;;23.85;48.54;101676.89;2329757;75;49516;-75
2022/08/31 10:52:00;;;;;;;3.72;1.32;;;;;;;23.92;48.44;101696.72;2335182;75;22401;-74
2022/08/31 10:55:36;;;;;;;2.25;1.20;;;;;;;23.95;48.37;101692.27;2327017;75;21771;-74
2022/08/31 10:58:44;;;;;;;7.25;1.40;;;;;;;23.93;48.19;101683.51;2284239;76;50427;-73
2022/08/31 11:02:15;;;;;;;4.12;1.20;;;;;;;23.94;48.15;101682.98;2281998;78;51190;-74
2022/08/31 11:05:36;;;;;;;4.05;1.40;;;;;;;23.93;48.07;101682.16;2279930;78;50341;-74
2022/08/31 11:08:54;;;;;;;1.80;1.10;;;;;;;23.90;47.99;101677.14;2247410;78;51193;-72
2022/08/31 11:11:58;;;;;;;3.05;1.30;;;;;;;23.85;47.91;101685.83;2280142;78;22292;-74
2022/08/31 11:15:32;;;;;;;1.82;1.15;;;;;;;23.86;47.70;101684.78;2281733;78;22565;-74
2022/08/31 11:19:06;;;;;;;8.28;1.60;;;;;;;23.87;47.80;101680.23;2298359;76;50772;-74
2022/08/31 11:22:36;;;;;;;4.25;1.37;;;;;;;23.83;47.74;101678.42;2312571;76;22403;-73
2022/08/31 11:25:49;;;;;;;4.50;1.32;;;;;;;23.81;47.79;101679.12;2299453;76;22338;-70
2022/08/31 11:28:57;;;;;;;3.45;1.20;;;;;;;23.84;47.68;101675.20;2308912;76;50511;-72
2022/08/31 11:32:06;;;;;;;3.00;1.30;;;;;;;23.83;47.54;101674.88;2321233;76;51264;-73
2022/08/31 11:35:09;;;;;;;5.80;1.10;;;;;;;23.81;47.47;101678.29;2288713;76;50904;-72
2022/08/31 11:38:32;;;;;;;3.60;0.98;;;;;;;23.79;47.76;101674.94;2293175;76;50678;-73
2022/08/31 11:41:37;;;;;;;2.05;1.15;;;;;;;23.78;47.54;101675.45;2279664;78;51494;-72
2022/08/31 11:44:43;;;;;;;2.50;1.10;;;;;;;23.78;47.51;101672.76;2309330;77;50789;-72
2022/08/31 11:47:45;;;;;;;2.20;1.20;;;;;;;23.76;47.42;101666.70;2311468;77;50398;-72
2022/08/31 11:51:05;;;;;;;2.08;1.10;;;;;;;23.76;47.18;101667.22;2289967;77;51539;-72
2022/08/31 11:54:20;;;;;;;4.25;1.02;;;;;;;23.74;47.11;101669.27;2290566;76;22281;-73
2022/08/31 11:57:23;;;;;;;2.15;1.02;;;;;;;23.74;47.26;101662.52;2302388;76;22178;-72
2022/08/31 12:00:28;;;;;;;3.40;1.40;;;;;;;23.74;47.08;101663.87;2276168;77;50993;-72
2022/08/31 12:03:42;;;;;;;;;;;;;;;23.73;47.17;101664.91;2303068;76;51756;-72
2022/08/31 12:06:53;;;;;;;2.45;1.00;;;;;;;23.75;47.17;101654.75;2323039;75;51490;-72
2022/08/31 12:10:18;;;;;;;2.60;1.20;;;;;;;23.73;46.75;101648.17;2307301;76;50936;-71
2022/08/31 12:13:39;;;;;;;2.80;1.40;;;;;;;23.72;46.78;101645.66;2330033;76;51480;-72
2022/08/31 12:16:55;;;;;;;2.65;1.27;;;;;;;23.69;46.84;101650.41;2329616;76;55644;-74
2022/08/31 12:20:11;;;;;;;4.33;1.12;;;;;;;23.69;46.78;101644.17;2330270;76;22876;-73
2022/08/31 12:23:38;;;;;;;1.65;1.00;;;;;;;23.69;46.79;101646.87;2330149;76;50086;-73
2022/08/31 12:27:00;;;;;;;2.98;1.10;;;;;;;23.69;46.86;101648.22;2329978;76;51398;-73
2022/08/31 12:30:18;;;;;;;2.70;1.30;;;;;;;23.69;46.89;101643.66;2330820;76;50732;-73
2022/08/31 12:33:23;;;;;;;7.92;1.60;;;;;;;23.68;46.76;101642.48;2333804;75;50422;-73
2022/08/31 12:36:26;;;;;;;;;;;;;;;23.69;47.26;101646.36;2339835;76;50552;-73
2022/08/31 12:39:29;;;;;;;12.47;2.25;;;;;;;23.72;47.62;101636.20;2333538;75;51491;-73
2022/08/31 12:42:32;;;;;;;8.33;1.70;;;;;;;23.68;47.50;101632.50;2342027;75;50096;-74
2022/08/31 12:45:40;;;;;;;20.08;2.20;;;;;;;23.74;47.27;101630.09;2312972;75;50981;-74
2022/08/31 12:49:06;;;;;;;14.23;2.12;;;;;;;23.72;47.49;101629.44;2355766;75;53029;-74
2022/08/31 12:52:36;;;;;;;16.73;2.12;;;;;;;23.68;48.25;101637.91;2300537;77;50200;-76
2022/08/31 12:55:50;;;;;;;8.85;1.85;;;;;;;23.67;48.48;101630.84;2276433;77;50082;-76
2022/08/31 12:59:14;;;;;;;9.93;2.08;;;;;;;23.66;48.86;101638.64;2313290;76;50408;-74
2022/08/31 13:02:19;;;;;;;11.65;2.05;;;;;;;23.68;48.53;101628.45;2353561;74;51473;-76
2022/08/31 13:05:25;;;;;;;6.78;1.90;;;;;;;23.70;48.92;101622.86;2378863;74;22278;-76
2022/08/31 13:08:28;;;;;;;10.03;2.50;;;;;;;23.69;49.25;101622.03;2376514;74;50703;-77
2022/08/31 13:11:38;;;;;;;10.75;1.70;;;;;;;23.74;49.15;101625.55;2290371;75;50904;-76
2022/08/31 13:14:42;;;;;;;9.48;2.12;;;;;;;23.75;49.47;101612.86;2320581;75;50711;-76
2022/08/31 13:17:45;;;;;;;8.63;1.50;;;;;;;23.77;49.52;101613.52;2352426;75;50595;-77
2022/08/31 13:20:47;;;;;;;11.20;1.95;;;;;;;23.75;49.91;101603.41;2319885;75;50049;-76
2022/08/31 13:23:49;;;;;;;8.98;2.42;;;;;;;23.79;49.83;101607.38;2352409;75;50677;-76
2022/08/31 13:27:13;;;;;;;9.75;2.17;;;;;;;23.80;49.85;101613.95;2352559;75;50654;-77
2022/08/31 13:30:18;;;;;;;10.65;1.85;;;;;;;23.81;50.07;101609.37;2352481;75;50767;-75
2022/08/31 13:33:23;;;;;;;10.43;1.67;;;;;;;23.80;50.16;101603.66;2320950;75;51532;-74
2022/08/31 13:36:46;;;;;;;;;;;;;;;23.78;50.26;101607.06;2316785;75;52559;-75
2022/08/31 13:39:48;;;;;;;12.88;1.50;;;;;;;23.79;50.43;101607.38;2358710;74;51604;-74
2022/08/31 13:42:52;;;;;;;9.38;1.90;;;;;;;23.76;50.71;101600.48;2362433;75;51404;-73
2022/08/31 13:45:59;;;;;;;5.25;1.67;;;;;;;23.77;50.77;101605.41;2334363;75;52508;-76
2022/08/31 13:49:03;;;;;;;5.95;1.57;;;;;;;23.79;50.95;101593.86;2343640;75;50252;-75
2022/08/31 13:52:26;;;;;;;4.85;1.70;;;;;;;23.81;51.06;101600.74;2370393;75;50361;-75
2022/08/31 13:55:34;;;;;;;7.37;1.77;;;;;;;23.80;51.24;101600.44;2335355;75;51900;-74
2022/08/31 13:58:39;;;;;;;5.47;1.90;;;;;;;23.82;51.35;101597.55;2362957;75;51476;-74
2022/08/31 14:01:44;;;;;;;5.28;1.82;;;;;;;23.82;51.43;101589.44;2354943;75;22281;-74
2022/08/31 14:05:06;;;;;;;6.58;2.00;;;;;;;23.82;51.26;101588.92;2304412;75;22362;-75
2022/08/31 14:07:55;;;;;;;4.90;1.50;;;;;;;23.85;51.16;101594.45;2315995;75;22434;-76
2022/08/31 14:10:57;;;;;;;7.95;1.80;;;;;;;23.88;50.83;101588.12;2329940;75;50216;-73
2022/08/31 14:14:07;;;;;;;6.10;1.98;;;;;;;23.88;50.66;101599.46;2347850;75;52219;-75
2022/08/31 14:17:14;;;;;;;4.40;1.82;;;;;;;23.89;50.65;101587.60;2330564;75;50230;-73
2022/08/31 14:20:35;;;;;;;4.20;1.30;;;;;;;23.91;50.19;101601.77;2318855;75;22422;-73
2022/08/31 14:23:38;;;;;;;4.83;1.60;;;;;;;23.91;50.21;101602.59;2317992;76;22301;-74
2022/08/31 14:26:42;;;;;;;4.05;1.82;;;;;;;23.87;50.23;101596.45;2318646;76;51395;-74
2022/08/31 14:29:44;;;;;;;3.12;1.50;;;;;;;23.81;50.69;101593.98;2306432;76;51521;-74
2022/08/31 14:32:46;;;;;;;2.80;1.40;;;;;;;23.79;50.88;101597.42;2318624;76;51493;-74
2022/08/31 14:35:53;;;;;;;5.42;1.62;;;;;;;23.76;50.97;101593.73;2306518;76;50918;-74
2022/08/31 14:38:53;;;;;;;3.90;1.60;;;;;;;23.73;51.00;101596.00;2280316;76;22112;-75